createdAt,value
2023-06-09T00:02:25.923Z,55.21
2023-06-09T00:04:53.396Z,54.80
2023-06-09T00:07:21.360Z,55.03
2023-06-09T00:09:48.930Z,55.39
2023-06-09T00:12:16.522Z,55.06
2023-06-09T00:14:44.132Z,54.77
2023-06-09T00:17:12.237Z,54.42
2023-06-09T00:19:43.295Z,54.75
2023-06-09T00:22:14.900Z,54.47
2023-06-09T00:24:42.885Z,54.05
2023-06-09T00:27:10.332Z,53.74
2023-06-09T00:29:37.865Z,53.83
2023-06-09T00:32:06.906Z,53.48
2023-06-09T00:34:34.451Z,53.43
2023-06-09T00:37:01.914Z,52.96
2023-06-09T00:39:29.878Z,53.23
2023-06-09T00:41:57.316Z,53.13
2023-06-09T00:44:24.842Z,52.55
2023-06-09T00:46:52.819Z,52.87
2023-06-09T00:49:21.134Z,52.55
2023-06-09T00:51:48.782Z,53.02
2023-06-09T00:54:19.289Z,52.85
2023-06-09T00:56:47.198Z,52.83
2023-06-09T00:59:15.996Z,52.71
2023-06-09T01:01:45.765Z,52.78
2023-06-09T01:04:16.438Z,53.36
2023-06-09T01:06:57.618Z,53.20
2023-06-09T01:09:36.674Z,53.21
2023-06-09T01:12:35.088Z,54.13
2023-06-09T01:15:18.746Z,53.79
2023-06-09T01:17:51.985Z,54.17
2023-06-09T01:20:33.261Z,54.16
2023-06-09T01:23:08.163Z,53.61
2023-06-09T01:25:41.077Z,53.07
2023-06-09T01:28:12.916Z,53.47
2023-06-09T01:30:42.764Z,53.23
2023-06-09T01:33:19.063Z,53.45
2023-06-09T01:35:47.513Z,53.82
2023-06-09T01:38:18.065Z,53.97
2023-06-09T01:40:46.006Z,54.06
2023-06-09T01:43:14.066Z,53.92
2023-06-09T01:45:41.789Z,54.07
2023-06-09T01:48:21.373Z,54.33
2023-06-09T01:51:07.736Z,54.35
2023-06-09T01:53:42.034Z,54.56
2023-06-09T01:56:21.696Z,54.89
2023-06-09T01:58:54.901Z,55.11
2023-06-09T02:01:23.923Z,55.23
2023-06-09T02:03:54.348Z,55.01
2023-06-09T02:06:22.213Z,55.11
2023-06-09T02:08:49.902Z,55.16
2023-06-09T02:11:17.871Z,55.15
2023-06-09T02:13:54.675Z,54.97
2023-06-09T02:16:23.544Z,54.87
2023-06-09T02:18:53.485Z,54.54
2023-06-09T02:21:21.020Z,55.11
2023-06-09T02:23:48.675Z,54.63
2023-06-09T02:26:16.485Z,54.57
2023-06-09T02:28:44.030Z,54.63
2023-06-09T02:31:11.682Z,54.44
2023-06-09T02:33:39.594Z,54.01
2023-06-09T02:36:07.231Z,53.98
2023-06-09T02:38:34.800Z,53.91
2023-06-09T02:41:02.467Z,53.90
2023-06-09T02:43:30.057Z,54.50
2023-06-09T02:45:57.537Z,54.01
2023-06-09T02:48:25.206Z,53.86
2023-06-09T02:50:52.768Z,54.80
2023-06-09T02:53:22.394Z,55.53
2023-06-09T02:55:50.416Z,55.86
2023-06-09T02:58:25.952Z,56.61
2023-06-09T03:00:56.369Z,57.14
2023-06-09T03:03:24.582Z,57.12
2023-06-09T03:05:53.576Z,56.75
2023-06-09T03:08:21.316Z,56.72
2023-06-09T03:10:50.211Z,56.74
2023-06-09T03:13:19.513Z,57.51
2023-06-09T03:15:51.502Z,56.77
2023-06-09T03:18:22.049Z,56.99
2023-06-09T03:20:51.964Z,56.65
2023-06-09T03:23:22.718Z,56.87
2023-06-09T03:25:53.255Z,56.37
2023-06-09T03:28:24.281Z,56.17
2023-06-09T03:30:51.984Z,56.25
2023-06-09T03:33:20.684Z,55.99
2023-06-09T03:35:50.915Z,55.96
2023-06-09T03:38:20.031Z,55.97
2023-06-09T03:40:47.690Z,55.41
2023-06-09T03:43:15.479Z,55.31
2023-06-09T03:45:43.162Z,55.18
2023-06-09T03:48:11.816Z,55.05
2023-06-09T03:50:41.644Z,55.31
2023-06-09T03:53:11.227Z,54.94
2023-06-09T03:55:39.609Z,54.77
2023-06-09T03:58:10.068Z,54.76
2023-06-09T04:00:38.195Z,54.33
2023-06-09T04:03:05.849Z,54.48
2023-06-09T04:05:33.450Z,54.46
2023-06-09T04:08:01.613Z,54.37
2023-06-09T04:10:29.815Z,54.37
2023-06-09T04:12:57.245Z,53.92
2023-06-09T04:15:25.119Z,54.13
2023-06-09T04:17:54.132Z,53.89
2023-06-09T04:20:28.066Z,54.21
2023-06-09T04:22:56.082Z,54.48
2023-06-09T04:25:29.082Z,54.40
2023-06-09T04:28:04.859Z,54.23
2023-06-09T04:30:35.799Z,54.28
2023-06-09T04:33:08.732Z,54.62
2023-06-09T04:35:37.202Z,54.51
2023-06-09T04:38:06.026Z,54.93
2023-06-09T04:40:34.637Z,55.26
2023-06-09T04:43:04.568Z,54.75
2023-06-09T04:45:36.916Z,54.74
2023-06-09T04:48:23.605Z,55.06
2023-06-09T04:50:51.281Z,55.37
2023-06-09T04:53:21.131Z,55.74
2023-06-09T04:55:56.947Z,55.54
2023-06-09T04:58:29.973Z,55.16
2023-06-09T05:00:58.479Z,55.44
2023-06-09T05:03:26.366Z,55.32
2023-06-09T05:05:54.152Z,55.26
2023-06-09T05:08:23.753Z,55.41
2023-06-09T05:10:53.895Z,56.30
2023-06-09T05:13:22.199Z,57.24
2023-06-09T05:15:50.169Z,58.03
2023-06-09T05:18:19.125Z,58.16
2023-06-09T05:20:48.075Z,58.82
2023-06-09T05:23:18.937Z,59.12
2023-06-09T05:25:51.199Z,59.63
2023-06-09T05:28:18.739Z,61.75
2023-06-09T05:30:46.580Z,61.22
2023-06-09T05:33:14.663Z,61.61
2023-06-09T05:35:42.221Z,62.13
2023-06-09T05:38:11.128Z,64.39
2023-06-09T05:40:38.583Z,65.70
2023-06-09T05:43:06.232Z,67.87
2023-06-09T05:45:33.713Z,70.47
2023-06-09T05:48:01.386Z,72.68
2023-06-09T05:50:28.813Z,74.29
2023-06-09T05:52:56.633Z,71.86
2023-06-09T05:55:24.492Z,74.27
2023-06-09T05:57:52.026Z,75.49
2023-06-09T06:00:20.895Z,76.64
2023-06-09T06:02:48.520Z,76.09
2023-06-09T06:05:15.963Z,75.07
2023-06-09T06:07:43.644Z,72.88
2023-06-09T06:10:11.507Z,74.75
2023-06-09T06:12:39.439Z,74.17
2023-06-09T06:15:07.411Z,74.34
2023-06-09T06:17:34.958Z,74.25
2023-06-09T06:20:02.453Z,74.95
2023-06-09T06:22:29.976Z,75.69
2023-06-09T06:24:57.590Z,76.18
2023-06-09T06:27:25.095Z,75.81
2023-06-09T06:29:52.572Z,72.85
2023-06-09T06:32:20.039Z,74.41
2023-06-09T06:34:47.804Z,73.38
2023-06-09T06:37:15.529Z,73.83
2023-06-09T06:39:43.007Z,75.46
2023-06-09T06:42:11.722Z,76.75
2023-06-09T06:44:56.372Z,78.04
2023-06-09T06:47:25.622Z,78.52
2023-06-09T06:49:53.177Z,79.57
2023-06-09T06:52:20.779Z,77.16
2023-06-09T06:54:48.262Z,77.54
2023-06-09T06:57:24.324Z,77.73
2023-06-09T06:59:54.067Z,77.57
2023-06-09T07:02:21.613Z,75.16
2023-06-09T07:04:49.359Z,75.41
2023-06-09T07:07:16.997Z,74.72
2023-06-09T07:09:44.811Z,77.23
2023-06-09T07:12:12.345Z,78.09
2023-06-09T07:14:39.931Z,77.39
2023-06-09T07:17:07.624Z,77.19
2023-06-09T07:19:36.464Z,74.85
2023-06-09T07:22:04.390Z,74.05
2023-06-09T07:24:31.886Z,73.84
2023-06-09T07:26:59.284Z,71.87
2023-06-09T07:29:27.160Z,74.85
2023-06-09T07:31:54.673Z,76.44
2023-06-09T07:34:22.305Z,77.46
2023-06-09T07:36:51.953Z,76.88
2023-06-09T07:39:20.426Z,76.20
2023-06-09T07:41:47.982Z,74.27
2023-06-09T07:44:17.229Z,73.51
2023-06-09T07:46:44.877Z,74.20
2023-06-09T07:49:12.636Z,71.65
2023-06-09T07:51:42.770Z,72.77
2023-06-09T07:54:10.660Z,73.65
2023-06-09T07:56:38.179Z,73.04
2023-06-09T07:59:07.194Z,74.13
2023-06-09T08:01:34.822Z,77.73
2023-06-09T08:04:05.315Z,77.26
2023-06-09T08:06:35.001Z,79.54
2023-06-09T08:09:02.656Z,80.73
2023-06-09T08:11:30.238Z,83.04
2023-06-09T08:13:57.759Z,76.85
2023-06-09T08:16:25.790Z,77.13
2023-06-09T08:18:53.285Z,76.77
2023-06-09T08:21:20.925Z,77.72
2023-06-09T08:23:48.504Z,78.08
2023-06-09T08:26:16.436Z,81.00
2023-06-09T08:28:44.073Z,81.61
2023-06-09T08:31:11.823Z,78.93
2023-06-09T08:33:40.985Z,77.83
2023-06-09T08:36:08.668Z,78.70
2023-06-09T08:38:36.730Z,76.84
2023-06-09T08:41:11.780Z,74.17
2023-06-09T08:43:39.572Z,70.57
2023-06-09T08:46:11.007Z,68.66
2023-06-09T08:48:51.556Z,68.79
2023-06-09T08:51:22.638Z,70.23
2023-06-09T08:53:53.141Z,70.89
2023-06-09T08:56:24.598Z,70.44
2023-06-09T08:58:53.292Z,68.62
2023-06-09T09:01:21.026Z,69.36
2023-06-09T09:03:49.028Z,68.47
2023-06-09T09:06:18.037Z,69.07
2023-06-09T09:08:45.728Z,66.92
2023-06-09T09:11:14.227Z,67.66
2023-06-09T09:13:41.855Z,68.09
2023-06-09T09:16:20.079Z,68.25
2023-06-09T09:18:49.384Z,68.66
2023-06-09T09:21:24.359Z,70.13
2023-06-09T09:24:02.666Z,70.98
2023-06-09T09:26:31.696Z,71.65
2023-06-09T09:29:08.320Z,70.61
2023-06-09T09:31:39.984Z,71.32
2023-06-09T09:34:15.420Z,71.93
2023-06-09T09:36:46.794Z,72.03
2023-06-09T09:39:16.331Z,71.71
2023-06-09T09:42:07.292Z,71.23
2023-06-09T09:44:42.298Z,71.79
2023-06-09T09:47:16.928Z,71.49
2023-06-09T09:50:03.505Z,70.37
2023-06-09T09:52:32.417Z,70.92
2023-06-09T09:55:01.529Z,70.40
2023-06-09T09:57:31.533Z,69.43
2023-06-09T10:00:05.623Z,69.62
2023-06-09T10:02:46.593Z,68.60
2023-06-09T10:05:17.552Z,68.56
2023-06-09T10:07:49.675Z,66.95
2023-06-09T10:10:18.789Z,67.09
2023-06-09T10:12:47.545Z,67.74
2023-06-09T10:15:15.942Z,66.59
2023-06-09T10:17:45.062Z,67.57
2023-06-09T10:20:14.241Z,67.00
2023-06-09T10:22:42.403Z,66.91
2023-06-09T10:25:13.471Z,66.81
2023-06-09T10:27:41.828Z,65.97
2023-06-09T10:30:10.523Z,66.34
2023-06-09T10:32:47.540Z,65.68
2023-06-09T10:35:20.971Z,63.77
2023-06-09T10:37:51.254Z,63.85
2023-06-09T10:40:39.570Z,62.43
2023-06-09T10:43:41.318Z,62.97
2023-06-09T10:46:14.067Z,62.97
2023-06-09T10:48:44.523Z,61.84
2023-06-09T10:51:30.079Z,59.80
2023-06-09T10:54:18.829Z,58.56
2023-06-09T10:56:53.565Z,57.74
2023-06-09T10:59:27.141Z,55.86
2023-06-09T11:02:04.640Z,54.63
2023-06-09T11:04:39.340Z,54.03
2023-06-09T11:07:11.186Z,52.73
2023-06-09T11:09:39.028Z,50.68
2023-06-09T11:12:07.387Z,49.08
2023-06-09T11:14:47.341Z,49.88
2023-06-09T11:17:27.224Z,50.26
2023-06-09T11:20:12.792Z,50.56
2023-06-09T11:22:44.087Z,50.02
2023-06-09T11:25:22.199Z,51.15
2023-06-09T11:28:10.892Z,50.88
2023-06-09T11:31:05.878Z,51.29
2023-06-09T11:33:47.069Z,51.72
2023-06-09T11:36:23.381Z,50.83
2023-06-09T11:38:51.693Z,52.92
2023-06-09T11:41:26.030Z,53.42
2023-06-09T11:43:55.703Z,52.72
2023-06-09T11:46:23.616Z,51.02
2023-06-09T11:48:58.911Z,51.02
2023-06-09T11:51:26.859Z,50.44
2023-06-09T11:53:54.366Z,50.67
2023-06-09T11:56:23.199Z,50.92
2023-06-09T11:58:55.193Z,50.45
2023-06-09T12:01:31.903Z,51.01
2023-06-09T12:03:59.561Z,50.67
2023-06-09T12:06:28.562Z,51.16
2023-06-09T12:09:24.557Z,50.78
2023-06-09T12:11:53.914Z,51.29
2023-06-09T12:14:22.650Z,51.48
2023-06-09T12:16:51.495Z,52.03
2023-06-09T12:19:20.025Z,51.86
2023-06-09T12:21:49.147Z,51.51
2023-06-09T12:24:17.073Z,50.93
2023-06-09T12:26:46.223Z,51.36
2023-06-09T12:29:14.297Z,50.66
2023-06-09T12:31:48.119Z,50.28
2023-06-09T12:34:30.568Z,51.22
2023-06-09T12:36:59.256Z,51.81
2023-06-09T12:39:31.833Z,51.98
2023-06-09T12:42:09.676Z,52.34
2023-06-09T12:44:37.205Z,52.99
2023-06-09T12:47:14.169Z,55.06
2023-06-09T12:49:44.420Z,57.47
2023-06-09T12:52:11.898Z,59.17
2023-06-09T12:54:39.505Z,60.15
2023-06-09T12:57:07.489Z,60.64
2023-06-09T12:59:35.344Z,61.70
2023-06-09T13:02:03.501Z,61.27
2023-06-09T13:04:31.236Z,60.65
2023-06-09T13:06:58.756Z,58.29
2023-06-09T13:09:26.267Z,59.39
2023-06-09T13:11:53.845Z,59.90
2023-06-09T13:14:21.421Z,60.92
2023-06-09T13:16:49.223Z,60.38
2023-06-09T13:19:16.857Z,62.04
2023-06-09T13:21:45.395Z,62.41
2023-06-09T13:24:13.791Z,62.84
2023-06-09T13:26:41.577Z,64.27
2023-06-09T13:29:10.529Z,66.08
2023-06-09T13:31:38.522Z,68.05
2023-06-09T13:34:06.102Z,69.37
2023-06-09T13:36:33.689Z,71.37
2023-06-09T13:39:01.745Z,72.28
2023-06-09T13:41:32.063Z,74.47
2023-06-09T13:44:04.070Z,76.41
2023-06-09T13:46:31.652Z,76.45
2023-06-09T13:49:00.257Z,77.15
2023-06-09T13:51:27.959Z,76.64
2023-06-09T13:53:55.586Z,77.59
2023-06-09T13:56:23.967Z,77.63
2023-06-09T13:58:51.557Z,78.55
2023-06-09T14:01:19.598Z,77.34
2023-06-09T14:03:47.227Z,78.46
2023-06-09T14:06:14.932Z,79.29
2023-06-09T14:08:42.512Z,81.36
2023-06-09T14:11:10.294Z,81.43
2023-06-09T14:13:38.263Z,84.63
2023-06-09T14:16:06.299Z,87.70
2023-06-09T14:18:33.939Z,89.37
2023-06-09T14:21:01.601Z,93.50
2023-06-09T14:23:29.341Z,98.39
2023-06-09T14:25:56.962Z,100.00
2023-06-09T14:28:24.708Z,100.00
2023-06-09T14:30:52.229Z,100.00
2023-06-09T14:33:20.630Z,100.00
2023-06-09T14:35:48.422Z,100.00
2023-06-09T14:38:16.030Z,100.00
2023-06-09T14:40:43.799Z,100.00
2023-06-09T14:43:12.046Z,100.00
2023-06-09T14:45:40.017Z,100.00
2023-06-09T14:48:10.589Z,100.00
2023-06-09T14:50:42.158Z,100.00
2023-06-09T14:53:14.064Z,100.00
2023-06-09T14:55:45.046Z,100.00
2023-06-09T14:58:14.142Z,100.00
2023-06-09T15:00:43.014Z,100.00
2023-06-09T15:03:12.920Z,100.00
2023-06-09T15:05:40.816Z,100.00
2023-06-09T15:08:08.578Z,100.00
2023-06-09T15:10:44.206Z,100.00
2023-06-09T15:13:13.013Z,100.00
2023-06-09T15:15:40.898Z,100.00
2023-06-09T15:18:10.804Z,100.00
2023-06-09T15:20:42.406Z,100.00
2023-06-09T15:23:11.467Z,100.00
2023-06-09T15:25:41.756Z,100.00
2023-06-09T15:28:11.755Z,100.00
2023-06-09T15:30:48.139Z,100.00
2023-06-09T15:33:20.289Z,100.00
2023-06-09T15:35:53.141Z,100.00
2023-06-09T15:38:25.855Z,100.00
2023-06-09T15:40:55.251Z,100.00
2023-06-09T15:43:23.848Z,100.00
2023-06-09T15:45:53.703Z,100.00
2023-06-09T15:48:22.660Z,100.00
2023-06-09T15:50:51.395Z,100.00
2023-06-09T15:53:21.589Z,100.00
2023-06-09T15:55:51.101Z,100.00
2023-06-09T15:58:19.376Z,100.00
2023-06-09T16:00:47.545Z,100.00
2023-06-09T16:03:15.475Z,100.00
2023-06-09T16:05:43.714Z,100.00
2023-06-09T16:08:13.763Z,100.00
2023-06-09T16:10:43.157Z,100.00
2023-06-09T16:13:10.828Z,100.00
2023-06-09T16:15:40.720Z,100.00
2023-06-09T16:18:13.428Z,100.00
2023-06-09T16:20:44.044Z,100.00
2023-06-09T16:23:12.520Z,100.00
2023-06-09T16:25:40.144Z,100.00
2023-06-09T16:28:08.076Z,100.00
2023-06-09T16:30:39.521Z,100.00
2023-06-09T16:33:09.294Z,100.00
2023-06-09T16:35:37.320Z,100.00
2023-06-09T16:38:05.712Z,100.00
2023-06-09T16:40:33.632Z,100.00
2023-06-09T16:43:01.259Z,100.00
2023-06-09T16:45:29.766Z,100.00
2023-06-09T16:47:58.153Z,100.00
2023-06-09T16:50:28.710Z,100.00
2023-06-09T16:52:56.731Z,100.00
2023-06-09T16:55:24.285Z,100.00
2023-06-09T16:57:51.863Z,100.00
2023-06-09T17:00:19.385Z,100.00
2023-06-09T17:02:47.079Z,100.00
2023-06-09T17:05:14.841Z,100.00
2023-06-09T17:07:43.365Z,100.00
2023-06-09T17:10:11.608Z,100.00
2023-06-09T17:12:39.575Z,100.00
2023-06-09T17:15:08.080Z,100.00
2023-06-09T17:17:35.965Z,100.00
2023-06-09T17:20:04.443Z,100.00
2023-06-09T17:22:32.674Z,100.00
2023-06-09T17:25:00.153Z,100.00
2023-06-09T17:27:27.679Z,100.00
2023-06-09T17:29:55.075Z,100.00
2023-06-09T17:32:22.502Z,100.00
2023-06-09T17:34:49.962Z,100.00
2023-06-09T17:37:17.563Z,100.00
2023-06-09T17:39:45.130Z,100.00
2023-06-09T17:42:12.958Z,100.00
2023-06-09T17:44:40.467Z,100.00
2023-06-09T17:47:08.350Z,100.00
2023-06-09T17:49:36.456Z,100.00
2023-06-09T17:52:04.434Z,100.00
2023-06-09T17:54:37.038Z,100.00
2023-06-09T17:57:07.498Z,100.00
2023-06-09T17:59:35.286Z,100.00
2023-06-09T18:02:03.978Z,100.00
2023-06-09T18:04:31.556Z,100.00
2023-06-09T18:07:00.129Z,100.00
2023-06-09T18:09:27.644Z,100.00
2023-06-09T18:11:55.308Z,100.00
2023-06-09T18:14:23.007Z,100.00
2023-06-09T18:16:50.690Z,100.00
2023-06-09T18:19:18.344Z,100.00
2023-06-09T18:21:45.968Z,100.00
2023-06-09T18:24:13.513Z,100.00
2023-06-09T18:26:41.516Z,100.00
2023-06-09T18:29:09.707Z,100.00
2023-06-09T18:31:37.404Z,100.00
2023-06-09T18:34:05.390Z,100.00
2023-06-09T18:36:33.117Z,100.00
2023-06-09T18:39:00.721Z,100.00
2023-06-09T18:41:28.344Z,100.00
2023-06-09T18:43:57.572Z,100.00
2023-06-09T18:46:25.371Z,100.00
2023-06-09T18:49:01.089Z,100.00
2023-06-09T18:51:29.685Z,100.00
2023-06-09T18:53:57.199Z,100.00
2023-06-09T18:56:25.021Z,100.00
2023-06-09T18:58:52.615Z,100.00
2023-06-09T19:01:21.695Z,100.00
2023-06-09T19:03:49.743Z,100.00
2023-06-09T19:06:18.606Z,100.00
2023-06-09T19:08:47.027Z,100.00
2023-06-09T19:11:14.868Z,100.00
2023-06-09T19:13:43.105Z,100.00
2023-06-09T19:16:11.063Z,100.00
2023-06-09T19:18:38.756Z,100.00
2023-06-09T19:21:06.370Z,100.00
2023-06-09T19:23:33.904Z,100.00
2023-06-09T19:26:02.468Z,100.00
2023-06-09T19:28:30.113Z,100.00
2023-06-09T19:30:57.682Z,100.00
2023-06-09T19:33:25.188Z,100.00
2023-06-09T19:35:53.005Z,100.00
2023-06-09T19:38:20.525Z,100.00
2023-06-09T19:40:48.151Z,100.00
2023-06-09T19:43:15.907Z,100.00
2023-06-09T19:45:44.280Z,100.00
2023-06-09T19:48:11.886Z,100.00
2023-06-09T19:50:39.660Z,100.00
2023-06-09T19:53:07.212Z,100.00
2023-06-09T19:55:34.729Z,100.00
2023-06-09T19:58:04.216Z,100.00
2023-06-09T20:00:31.947Z,100.00
2023-06-09T20:02:59.390Z,100.00
2023-06-09T20:05:26.918Z,100.00
2023-06-09T20:07:54.490Z,100.00
2023-06-09T20:10:22.225Z,100.00
2023-06-09T20:12:49.750Z,100.00
2023-06-09T20:15:17.267Z,100.00
2023-06-09T20:17:44.846Z,100.00
2023-06-09T20:20:13.489Z,100.00
2023-06-09T20:22:42.029Z,100.00
2023-06-09T20:25:10.121Z,100.00
2023-06-09T20:27:38.099Z,100.00
2023-06-09T20:30:06.537Z,100.00
2023-06-09T20:32:34.042Z,100.00
2023-06-09T20:35:01.607Z,100.00
2023-06-09T20:37:29.062Z,100.00
2023-06-09T20:39:57.583Z,100.00
2023-06-09T20:42:25.120Z,100.00
2023-06-09T20:44:52.963Z,100.00
2023-06-09T20:47:20.750Z,100.00
2023-06-09T20:49:48.338Z,100.00
2023-06-09T20:52:16.230Z,100.00
2023-06-09T20:54:44.584Z,100.00
2023-06-09T20:57:12.064Z,100.00
2023-06-09T20:59:39.770Z,100.00
2023-06-09T21:02:08.550Z,100.00
2023-06-09T21:04:36.050Z,100.00
2023-06-09T21:07:04.297Z,100.00
2023-06-09T21:09:31.876Z,100.00
2023-06-09T21:11:59.363Z,100.00
2023-06-09T21:14:27.548Z,100.00
2023-06-09T21:16:55.120Z,100.00
2023-06-09T21:19:22.745Z,100.00
2023-06-09T21:21:50.213Z,100.00
2023-06-09T21:24:17.919Z,100.00
2023-06-09T21:26:46.055Z,100.00
2023-06-09T21:29:13.639Z,100.00
2023-06-09T21:31:41.232Z,100.00
2023-06-09T21:34:08.850Z,100.00
2023-06-09T21:36:36.507Z,100.00
2023-06-09T21:39:04.147Z,100.00
2023-06-09T21:41:31.678Z,100.00
2023-06-09T21:43:59.230Z,100.00
2023-06-09T21:46:26.671Z,100.00
2023-06-09T21:48:54.202Z,100.00
2023-06-09T21:51:21.884Z,100.00
2023-06-09T21:53:49.482Z,100.00
2023-06-09T21:56:16.964Z,100.00
2023-06-09T21:58:44.538Z,100.00
2023-06-09T22:01:12.315Z,100.00
2023-06-09T22:03:39.968Z,100.00
2023-06-09T22:06:07.671Z,100.00
2023-06-09T22:08:37.413Z,100.00
2023-06-09T22:11:06.597Z,100.00
2023-06-09T22:13:35.565Z,100.00
2023-06-09T22:16:03.793Z,100.00
2023-06-09T22:18:31.861Z,100.00
2023-06-09T22:21:08.960Z,100.00
2023-06-09T22:23:36.596Z,100.00
2023-06-09T22:26:04.051Z,100.00
2023-06-09T22:28:31.676Z,100.00
2023-06-09T22:30:59.273Z,100.00
2023-06-09T22:33:26.779Z,100.00
2023-06-09T22:35:54.348Z,100.00
2023-06-09T22:38:21.840Z,100.00
2023-06-09T22:40:49.885Z,100.00
2023-06-09T22:43:17.386Z,100.00
2023-06-09T22:45:44.911Z,100.00
2023-06-09T22:48:13.086Z,100.00
2023-06-09T22:50:40.811Z,100.00
2023-06-09T22:53:08.348Z,100.00
2023-06-09T22:55:35.874Z,100.00
2023-06-09T22:58:03.537Z,100.00
2023-06-09T23:00:31.220Z,100.00
2023-06-09T23:02:58.855Z,100.00
2023-06-09T23:05:31.443Z,100.00
2023-06-09T23:07:59.170Z,100.00
2023-06-09T23:10:26.628Z,100.00
2023-06-09T23:12:54.159Z,100.00
2023-06-09T23:15:23.992Z,100.00
2023-06-09T23:17:53.723Z,100.00
2023-06-09T23:20:23.193Z,100.00
2023-06-09T23:22:53.839Z,100.00
2023-06-09T23:25:21.315Z,100.00
2023-06-09T23:27:48.920Z,100.00
2023-06-09T23:30:16.522Z,100.00
2023-06-09T23:32:45.367Z,100.00
2023-06-09T23:35:14.556Z,100.00
2023-06-09T23:37:42.366Z,100.00
2023-06-09T23:40:11.429Z,100.00
2023-06-09T23:42:41.065Z,100.00
2023-06-09T23:45:09.697Z,100.00
2023-06-09T23:47:37.688Z,100.00
2023-06-09T23:50:06.126Z,100.00
2023-06-09T23:52:34.207Z,100.00
2023-06-09T23:55:05.292Z,100.00
2023-06-09T23:57:34.025Z,100.00
